createdAt,value
2023-02-06T00:00:43.564Z,16.68
2023-02-06T00:01:48.361Z,16.55
2023-02-06T00:02:50.927Z,16.60
2023-02-06T00:03:53.728Z,16.23
2023-02-06T00:04:56.075Z,16.93
2023-02-06T00:06:00.145Z,16.47
2023-02-06T00:07:02.505Z,17.67
2023-02-06T00:08:07.197Z,17.18
2023-02-06T00:09:10.540Z,16.63
2023-02-06T00:10:13.055Z,17.53
2023-02-06T00:11:16.992Z,18.23
2023-02-06T00:12:19.377Z,16.73
2023-02-06T00:13:22.158Z,17.15
2023-02-06T00:14:24.601Z,17.05
2023-02-06T00:15:27.016Z,16.48
2023-02-06T00:16:32.864Z,16.90
2023-02-06T00:17:36.814Z,16.02
2023-02-06T00:18:39.207Z,16.37
2023-02-06T00:19:41.743Z,16.58
2023-02-06T00:20:44.152Z,15.62
2023-02-06T00:21:46.573Z,17.05
2023-02-06T00:22:48.940Z,17.07
2023-02-06T00:23:53.679Z,16.30
2023-02-06T00:24:56.083Z,16.93
2023-02-06T00:25:58.490Z,16.40
2023-02-06T00:27:00.872Z,16.18
2023-02-06T00:28:03.280Z,16.48
2023-02-06T00:29:05.897Z,17.05
2023-02-06T00:30:08.603Z,17.50
2023-02-06T00:31:11.224Z,17.98
2023-02-06T00:32:13.585Z,18.35
2023-02-06T00:33:16.095Z,18.72
2023-02-06T00:34:18.492Z,19.07
2023-02-06T00:35:21.196Z,19.20
2023-02-06T00:36:23.607Z,19.10
2023-02-06T00:37:26.006Z,19.43
2023-02-06T00:38:28.456Z,20.17
2023-02-06T00:39:30.901Z,20.18
2023-02-06T00:40:33.336Z,20.80
2023-02-06T00:41:35.722Z,21.00
2023-02-06T00:42:38.051Z,20.47
2023-02-06T00:43:42.039Z,20.97
2023-02-06T00:44:44.404Z,20.63
2023-02-06T00:45:54.730Z,20.60
2023-02-06T00:46:58.813Z,21.02
2023-02-06T00:48:01.211Z,21.23
2023-02-06T00:49:03.792Z,20.68
2023-02-06T00:50:06.437Z,20.83
2023-02-06T00:51:08.968Z,20.53
2023-02-06T00:52:11.339Z,20.43
2023-02-06T00:53:13.754Z,20.03
2023-02-06T00:54:16.141Z,20.15
2023-02-06T00:55:18.575Z,20.68
2023-02-06T00:56:21.017Z,20.42
2023-02-06T00:57:23.343Z,19.67
2023-02-06T00:58:25.730Z,20.10
2023-02-06T00:59:28.162Z,20.38
2023-02-06T01:00:30.506Z,18.52
2023-02-06T01:01:33.211Z,19.87
2023-02-06T01:02:35.785Z,19.38
2023-02-06T01:03:38.178Z,19.32
2023-02-06T01:05:00.917Z,18.53
2023-02-06T01:06:03.424Z,19.23
2023-02-06T01:07:26.322Z,19.00
2023-02-06T01:08:28.696Z,19.23
2023-02-06T01:09:31.089Z,19.72
2023-02-06T01:10:33.436Z,19.42
2023-02-06T01:11:36.142Z,20.13
2023-02-06T01:12:38.634Z,21.17
2023-02-06T01:13:41.560Z,20.52
2023-02-06T01:14:43.905Z,20.28
2023-02-06T01:15:46.320Z,20.57
2023-02-06T01:16:48.676Z,19.80
2023-02-06T01:17:51.107Z,19.95
2023-02-06T01:18:53.768Z,19.72
2023-02-06T01:19:56.181Z,20.53
2023-02-06T01:20:58.546Z,21.87
2023-02-06T01:22:01.045Z,20.42
2023-02-06T01:23:03.512Z,21.02
2023-02-06T01:24:05.949Z,21.93
2023-02-06T01:25:09.251Z,21.28
2023-02-06T01:26:14.390Z,22.50
2023-02-06T01:27:16.782Z,23.03
2023-02-06T01:28:19.180Z,23.90
2023-02-06T01:29:21.531Z,23.33
2023-02-06T01:30:23.917Z,22.78
2023-02-06T01:31:28.908Z,24.52
2023-02-06T01:32:31.422Z,23.72
2023-02-06T01:33:33.814Z,24.27
2023-02-06T01:34:36.131Z,23.98
2023-02-06T01:35:38.468Z,25.25
2023-02-06T01:36:40.902Z,25.68
2023-02-06T01:37:43.282Z,25.78
2023-02-06T01:38:46.441Z,26.78
2023-02-06T01:39:48.798Z,28.20
2023-02-06T01:40:56.602Z,25.03
2023-02-06T01:41:59.086Z,22.57
2023-02-06T01:43:02.219Z,21.63
2023-02-06T01:44:14.094Z,21.60
2023-02-06T01:45:21.949Z,22.02
2023-02-06T01:46:24.308Z,21.63
2023-02-06T01:47:26.673Z,20.85
2023-02-06T01:48:36.486Z,21.37
2023-02-06T01:49:46.608Z,20.53
2023-02-06T01:50:52.549Z,20.28
2023-02-06T01:51:59.943Z,19.58
2023-02-06T01:53:05.222Z,19.93
2023-02-06T01:54:08.918Z,19.52
2023-02-06T01:55:11.299Z,19.73
2023-02-06T01:56:19.535Z,18.73
2023-02-06T01:57:23.608Z,19.08
2023-02-06T01:58:33.083Z,19.97
2023-02-06T01:59:36.078Z,19.57
2023-02-06T02:00:38.629Z,19.65
2023-02-06T02:01:42.110Z,18.75
2023-02-06T02:02:48.537Z,19.12
2023-02-06T02:03:54.880Z,20.67
2023-02-06T02:04:58.501Z,20.12
2023-02-06T02:06:09.178Z,18.75
2023-02-06T02:07:17.835Z,19.47
2023-02-06T02:08:28.187Z,19.48
2023-02-06T02:09:30.593Z,19.90
2023-02-06T02:10:33.523Z,18.93
2023-02-06T02:11:38.035Z,18.85
2023-02-06T02:12:40.474Z,18.48
2023-02-06T02:13:43.210Z,18.55
2023-02-06T02:14:47.533Z,18.47
2023-02-06T02:16:08.139Z,18.43
2023-02-06T02:17:22.882Z,18.78
2023-02-06T02:18:41.104Z,18.62
2023-02-06T02:20:07.910Z,18.57
2023-02-06T02:21:17.782Z,18.30
2023-02-06T02:22:47.250Z,18.45
2023-02-06T02:23:55.988Z,18.95
2023-02-06T02:25:34.946Z,18.57
2023-02-06T02:26:55.753Z,18.67
2023-02-06T02:28:55.058Z,19.15
2023-02-06T02:30:00.311Z,19.55
2023-02-06T02:31:27.037Z,20.40
2023-02-06T02:32:38.226Z,19.68
2023-02-06T02:33:49.250Z,18.10
2023-02-06T02:35:12.946Z,18.67
2023-02-06T02:36:37.102Z,18.87
2023-02-06T02:38:02.517Z,20.07
2023-02-06T02:39:07.749Z,20.10
2023-02-06T02:40:44.736Z,20.50
2023-02-06T02:41:57.246Z,20.48
2023-02-06T02:43:18.278Z,21.62
2023-02-06T02:44:27.919Z,20.28
2023-02-06T02:45:40.886Z,21.05
2023-02-06T02:46:45.472Z,21.18
2023-02-06T02:47:57.236Z,21.40
2023-02-06T02:49:04.909Z,21.60
2023-02-06T02:50:07.921Z,21.55
2023-02-06T02:51:10.937Z,21.23
2023-02-06T02:52:15.151Z,21.75
2023-02-06T02:53:17.554Z,21.45
2023-02-06T02:54:20.183Z,21.80
2023-02-06T02:55:23.510Z,22.18
2023-02-06T02:56:26.879Z,22.03
2023-02-06T02:57:30.794Z,21.40
2023-02-06T02:58:35.614Z,20.70
2023-02-06T02:59:44.049Z,20.57
2023-02-06T03:00:53.738Z,20.90
2023-02-06T03:02:07.027Z,22.53
2023-02-06T03:03:11.790Z,24.47
2023-02-06T03:04:23.191Z,24.75
2023-02-06T03:05:27.194Z,22.10
2023-02-06T03:06:51.262Z,22.53
2023-02-06T03:07:56.324Z,20.68
2023-02-06T03:09:11.055Z,21.47
2023-02-06T03:10:25.493Z,21.67
2023-02-06T03:11:28.048Z,21.10
2023-02-06T03:13:03.524Z,23.13
2023-02-06T03:14:14.767Z,21.78
2023-02-06T03:15:31.713Z,21.42
2023-02-06T03:16:41.852Z,21.00
2023-02-06T03:17:51.827Z,20.37
2023-02-06T03:19:07.923Z,20.10
2023-02-06T03:20:12.038Z,21.13
2023-02-06T03:21:18.928Z,21.02
2023-02-06T03:22:22.034Z,20.82
2023-02-06T03:23:29.499Z,21.13
2023-02-06T03:24:39.769Z,21.27
2023-02-06T03:25:44.742Z,21.65
2023-02-06T03:26:50.791Z,21.52
2023-02-06T03:27:54.692Z,21.42
2023-02-06T03:29:01.269Z,21.42
2023-02-06T03:30:05.880Z,21.18
2023-02-06T03:31:13.488Z,21.60
2023-02-06T03:32:19.747Z,21.40
2023-02-06T03:33:27.554Z,21.03
2023-02-06T03:34:43.025Z,20.47
2023-02-06T03:35:46.225Z,21.83
2023-02-06T03:36:49.958Z,21.08
2023-02-06T03:37:53.216Z,21.10
2023-02-06T03:38:55.677Z,19.93
2023-02-06T03:39:59.829Z,21.07
2023-02-06T03:41:04.009Z,20.63
2023-02-06T03:42:07.814Z,20.52
2023-02-06T03:43:12.997Z,21.28
2023-02-06T03:44:19.952Z,21.25
2023-02-06T03:45:25.817Z,21.75
2023-02-06T03:46:30.219Z,20.68
2023-02-06T03:47:34.272Z,21.75
2023-02-06T03:48:41.906Z,21.80
2023-02-06T03:49:47.043Z,21.87
2023-02-06T03:50:54.280Z,20.52
2023-02-06T03:52:00.215Z,21.98
2023-02-06T03:53:04.486Z,21.28
2023-02-06T03:54:09.036Z,22.88
2023-02-06T03:55:15.259Z,22.72
2023-02-06T03:56:25.671Z,25.58
2023-02-06T03:57:31.606Z,33.92
2023-02-06T03:58:33.967Z,27.87
2023-02-06T03:59:36.339Z,24.87
2023-02-06T04:00:41.654Z,23.60
2023-02-06T04:01:48.056Z,23.65
2023-02-06T04:02:52.609Z,24.07
2023-02-06T04:03:55.097Z,24.37
2023-02-06T04:04:57.442Z,23.38
2023-02-06T04:06:00.097Z,23.68
2023-02-06T04:07:13.091Z,25.22
2023-02-06T04:08:15.661Z,25.15
2023-02-06T04:09:18.052Z,25.73
2023-02-06T04:10:20.422Z,25.80
2023-02-06T04:11:22.828Z,26.28
2023-02-06T04:12:25.366Z,26.90
2023-02-06T04:13:27.730Z,26.30
2023-02-06T04:14:30.132Z,26.55
2023-02-06T04:15:32.473Z,26.88
2023-02-06T04:16:34.851Z,27.77
2023-02-06T04:17:53.593Z,27.63
2023-02-06T04:18:59.763Z,26.22
2023-02-06T04:20:02.224Z,26.88
2023-02-06T04:21:06.184Z,27.62
2023-02-06T04:22:11.760Z,28.23
2023-02-06T04:23:14.091Z,28.65
2023-02-06T04:24:16.471Z,29.33
2023-02-06T04:25:18.894Z,29.22
2023-02-06T04:26:21.250Z,29.02
2023-02-06T04:27:23.803Z,30.13
2023-02-06T04:28:26.255Z,32.40
2023-02-06T04:29:28.731Z,34.97
2023-02-06T04:30:31.167Z,35.92
2023-02-06T04:31:33.865Z,36.22
2023-02-06T04:32:36.305Z,37.10
2023-02-06T04:33:38.651Z,36.50
2023-02-06T04:34:41.012Z,35.57
2023-02-06T04:35:43.436Z,35.08
2023-02-06T04:36:45.773Z,36.52
2023-02-06T04:37:48.153Z,42.87
2023-02-06T04:38:50.974Z,45.53
2023-02-06T04:39:53.352Z,43.67
2023-02-06T04:40:55.759Z,44.22
2023-02-06T04:41:58.100Z,45.70
2023-02-06T04:43:00.466Z,45.72
2023-02-06T04:44:02.848Z,44.95
2023-02-06T04:45:05.580Z,46.47
2023-02-06T04:46:07.991Z,47.25
2023-02-06T04:47:10.370Z,47.55
2023-02-06T04:48:12.723Z,44.70
2023-02-06T04:49:15.341Z,39.85
2023-02-06T04:50:18.151Z,38.23
2023-02-06T04:51:20.581Z,38.45
2023-02-06T04:52:22.931Z,37.98
2023-02-06T04:53:25.370Z,40.30
2023-02-06T04:54:27.771Z,41.02
2023-02-06T04:55:30.144Z,42.85
2023-02-06T04:56:33.313Z,44.07
2023-02-06T04:57:35.658Z,47.00
2023-02-06T04:58:39.435Z,48.68
2023-02-06T04:59:41.840Z,53.60
2023-02-06T05:00:44.240Z,69.93
2023-02-06T05:01:46.656Z,73.12
2023-02-06T05:02:49.046Z,57.00
2023-02-06T05:03:51.653Z,46.10
2023-02-06T05:04:54.055Z,45.33
2023-02-06T05:05:59.512Z,43.33
2023-02-06T05:07:03.068Z,41.77
2023-02-06T05:08:06.889Z,40.92
2023-02-06T05:09:09.980Z,43.30
2023-02-06T05:10:12.382Z,50.27
2023-02-06T05:11:14.741Z,54.82
2023-02-06T05:12:17.142Z,67.40
2023-02-06T05:13:19.996Z,73.25
2023-02-06T05:14:22.465Z,71.13
2023-02-06T05:15:24.793Z,77.38
2023-02-06T05:16:27.260Z,74.62
2023-02-06T05:17:29.951Z,60.58
2023-02-06T05:18:32.346Z,55.25
2023-02-06T05:19:34.747Z,42.48
2023-02-06T05:20:37.095Z,39.47
2023-02-06T05:21:39.457Z,44.98
2023-02-06T05:22:41.858Z,130.17
2023-02-06T05:23:44.254Z,325.30
2023-02-06T05:24:46.647Z,477.27
2023-02-06T05:25:49.040Z,406.93
2023-02-06T05:26:51.471Z,203.80
2023-02-06T05:27:54.088Z,138.48
2023-02-06T05:28:56.475Z,111.40
2023-02-06T05:29:58.813Z,74.37
2023-02-06T05:31:02.011Z,62.92
2023-02-06T05:32:04.570Z,59.68
2023-02-06T05:33:06.949Z,61.10
2023-02-06T05:34:10.350Z,61.25
2023-02-06T05:35:12.749Z,57.43
2023-02-06T05:36:15.122Z,51.12
2023-02-06T05:37:17.645Z,53.82
2023-02-06T05:38:20.645Z,52.90
2023-02-06T05:39:23.520Z,50.77
2023-02-06T05:40:25.893Z,42.07
2023-02-06T05:41:28.241Z,46.07
2023-02-06T05:42:30.618Z,36.55
2023-02-06T05:43:33.883Z,34.70
2023-02-06T05:44:36.396Z,38.05
2023-02-06T05:45:38.915Z,48.18
2023-02-06T05:46:41.480Z,35.27
2023-02-06T05:47:43.910Z,34.45
2023-02-06T05:48:46.273Z,36.27
2023-02-06T05:49:48.597Z,27.70
2023-02-06T05:50:51.071Z,27.45
2023-02-06T05:51:53.450Z,27.12
2023-02-06T05:52:55.821Z,27.68
2023-02-06T05:53:58.176Z,27.10
2023-02-06T05:55:00.578Z,33.63
2023-02-06T05:56:02.978Z,37.12
2023-02-06T05:57:05.471Z,32.08
2023-02-06T05:58:07.786Z,31.48
2023-02-06T05:59:10.188Z,26.30
2023-02-06T06:00:13.762Z,25.03
2023-02-06T06:01:16.150Z,26.17
2023-02-06T06:02:18.517Z,30.22
2023-02-06T06:03:20.925Z,34.02
2023-02-06T06:04:23.321Z,32.83
2023-02-06T06:05:25.950Z,32.40
2023-02-06T06:06:28.318Z,29.08
2023-02-06T06:07:30.735Z,27.12
2023-02-06T06:08:33.335Z,25.27
2023-02-06T06:09:35.703Z,24.03
2023-02-06T06:10:38.158Z,24.57
2023-02-06T06:11:40.525Z,23.45
2023-02-06T06:12:42.875Z,23.65
2023-02-06T06:13:45.225Z,23.55
2023-02-06T06:14:47.628Z,24.33
2023-02-06T06:15:51.872Z,29.67
2023-02-06T06:16:54.353Z,32.93
2023-02-06T06:17:56.688Z,33.42
2023-02-06T06:18:59.054Z,30.77
2023-02-06T06:20:01.435Z,26.43
2023-02-06T06:21:03.972Z,25.15
2023-02-06T06:22:06.514Z,24.98
2023-02-06T06:23:08.929Z,24.53
2023-02-06T06:24:11.309Z,24.92
2023-02-06T06:25:13.683Z,28.72
2023-02-06T06:26:16.490Z,30.75
2023-02-06T06:27:18.907Z,31.50
2023-02-06T06:28:22.042Z,33.07
2023-02-06T06:29:24.398Z,32.63
2023-02-06T06:30:27.051Z,33.10
2023-02-06T06:31:29.413Z,31.08
2023-02-06T06:32:31.826Z,32.10
2023-02-06T06:33:34.862Z,33.25
2023-02-06T06:34:37.274Z,32.53
2023-02-06T06:35:39.802Z,31.72
2023-02-06T06:36:42.149Z,31.35
2023-02-06T06:37:44.541Z,31.23
2023-02-06T06:38:46.937Z,30.45
2023-02-06T06:39:49.370Z,30.27
2023-02-06T06:40:52.611Z,31.05
2023-02-06T06:41:55.074Z,32.22
2023-02-06T06:42:57.635Z,30.05
2023-02-06T06:44:00.442Z,29.22
2023-02-06T06:45:03.054Z,29.92
2023-02-06T06:46:06.185Z,32.98
2023-02-06T06:47:08.637Z,49.07
2023-02-06T06:48:11.024Z,48.35
2023-02-06T06:49:13.438Z,50.20
2023-02-06T06:50:15.815Z,47.18
2023-02-06T06:51:20.494Z,49.45
2023-02-06T06:52:28.082Z,52.27
2023-02-06T06:53:30.436Z,46.38
2023-02-06T06:54:34.924Z,37.58
2023-02-06T06:55:39.350Z,32.62
2023-02-06T06:56:42.993Z,39.55
2023-02-06T06:57:46.350Z,44.38
2023-02-06T06:58:49.346Z,41.48
2023-02-06T06:59:54.852Z,40.88
2023-02-06T07:00:57.518Z,43.37
2023-02-06T07:01:59.952Z,36.77
2023-02-06T07:03:02.394Z,30.15
2023-02-06T07:04:05.050Z,30.77
2023-02-06T07:05:07.630Z,33.28
2023-02-06T07:06:11.561Z,32.95
2023-02-06T07:07:14.107Z,34.77
2023-02-06T07:08:16.528Z,31.67
2023-02-06T07:09:18.942Z,33.25
2023-02-06T07:10:21.355Z,32.90
2023-02-06T07:11:24.398Z,32.67
2023-02-06T07:12:27.429Z,35.32
2023-02-06T07:13:29.910Z,32.33
2023-02-06T07:14:32.285Z,30.93
2023-02-06T07:15:34.780Z,26.63
2023-02-06T07:16:37.417Z,26.32
2023-02-06T07:17:40.158Z,27.40
2023-02-06T07:18:43.202Z,26.62
2023-02-06T07:19:49.375Z,25.25
2023-02-06T07:20:51.825Z,25.58
2023-02-06T07:21:54.224Z,24.50
2023-02-06T07:22:56.647Z,27.67
2023-02-06T07:23:59.271Z,26.43
2023-02-06T07:25:01.743Z,31.07
2023-02-06T07:26:04.568Z,29.77
2023-02-06T07:27:07.091Z,26.75
2023-02-06T07:28:10.033Z,25.65
2023-02-06T07:29:12.522Z,24.80
2023-02-06T07:30:15.665Z,29.42
2023-02-06T07:31:18.144Z,29.50
2023-02-06T07:32:20.734Z,28.23
2023-02-06T07:33:23.136Z,24.32
2023-02-06T07:34:25.654Z,27.45
2023-02-06T07:35:28.086Z,34.32
2023-02-06T07:36:30.569Z,47.58
2023-02-06T07:37:33.326Z,34.65
2023-02-06T07:38:35.692Z,37.20
2023-02-06T07:39:38.295Z,27.87
2023-02-06T07:40:45.122Z,24.85
2023-02-06T07:41:50.403Z,32.90
2023-02-06T07:42:52.784Z,30.33
2023-02-06T07:43:55.296Z,31.08
2023-02-06T07:44:57.876Z,121.33
2023-02-06T07:46:02.660Z,65.58
2023-02-06T07:47:08.649Z,28.28
2023-02-06T07:48:12.027Z,29.67
2023-02-06T07:49:16.456Z,33.58
2023-02-06T07:50:21.879Z,26.93
2023-02-06T07:51:29.482Z,40.28
2023-02-06T07:52:32.975Z,26.35
2023-02-06T07:53:38.069Z,26.90
2023-02-06T07:54:40.512Z,23.78
2023-02-06T07:55:42.878Z,22.90
2023-02-06T07:56:45.238Z,21.78
2023-02-06T07:57:47.600Z,22.75
2023-02-06T07:58:52.371Z,42.88
2023-02-06T07:59:54.776Z,35.97
2023-02-06T08:00:59.763Z,31.90
2023-02-06T08:02:02.169Z,29.77
2023-02-06T08:03:05.218Z,26.15
2023-02-06T08:04:07.652Z,27.65
2023-02-06T08:05:10.138Z,25.02
2023-02-06T08:06:14.983Z,24.20
2023-02-06T08:07:18.157Z,23.70
2023-02-06T08:08:20.522Z,23.25
2023-02-06T08:09:22.987Z,21.93
2023-02-06T08:10:25.833Z,23.37
2023-02-06T08:11:30.382Z,22.33
2023-02-06T08:12:32.832Z,22.25
2023-02-06T08:13:35.565Z,22.27
2023-02-06T08:14:37.966Z,22.48
2023-02-06T08:15:44.823Z,23.48
2023-02-06T08:16:49.343Z,22.87
2023-02-06T08:17:51.805Z,23.13
2023-02-06T08:18:54.240Z,22.82
2023-02-06T08:19:57.572Z,23.32
2023-02-06T08:21:04.913Z,22.95
2023-02-06T08:22:07.571Z,22.20
2023-02-06T08:23:09.982Z,21.80
2023-02-06T08:24:13.081Z,20.20
2023-02-06T08:25:15.574Z,20.10
2023-02-06T08:26:18.783Z,20.88
2023-02-06T08:27:21.171Z,20.12
2023-02-06T08:28:23.741Z,19.23
2023-02-06T08:29:26.534Z,20.22
2023-02-06T08:30:29.244Z,21.45
2023-02-06T08:31:38.035Z,20.95
2023-02-06T08:32:40.567Z,19.43
2023-02-06T08:33:43.546Z,18.75
2023-02-06T08:34:45.959Z,20.37
2023-02-06T08:35:50.874Z,20.60
2023-02-06T08:36:53.291Z,20.27
2023-02-06T08:37:55.727Z,19.25
2023-02-06T08:38:58.487Z,21.98
2023-02-06T08:40:00.832Z,24.03
2023-02-06T08:41:04.166Z,32.07
2023-02-06T08:42:08.285Z,27.85
2023-02-06T08:43:14.398Z,21.90
2023-02-06T08:44:18.238Z,19.62
2023-02-06T08:45:21.718Z,17.75
2023-02-06T08:46:26.272Z,19.22
2023-02-06T08:47:31.415Z,18.35
2023-02-06T08:48:33.960Z,19.85
2023-02-06T08:49:36.461Z,20.68
2023-02-06T08:50:40.025Z,20.35
2023-02-06T08:51:59.764Z,20.40
2023-02-06T08:53:04.969Z,20.45
2023-02-06T08:54:11.711Z,20.40
2023-02-06T08:55:17.201Z,20.22
2023-02-06T08:56:20.552Z,18.52
2023-02-06T08:57:23.040Z,17.05
2023-02-06T08:58:25.440Z,18.05
2023-02-06T08:59:30.917Z,19.47
2023-02-06T09:00:33.515Z,20.58
2023-02-06T09:01:39.189Z,20.40
2023-02-06T09:02:41.556Z,17.95
2023-02-06T09:03:45.211Z,18.58
2023-02-06T09:04:47.634Z,16.83
2023-02-06T09:05:50.833Z,15.97
2023-02-06T09:06:53.997Z,15.87
2023-02-06T09:07:56.358Z,15.70
2023-02-06T09:08:59.087Z,16.22
2023-02-06T09:10:01.429Z,17.33
2023-02-06T09:11:15.727Z,17.70
2023-02-06T09:12:18.195Z,16.47
2023-02-06T09:13:20.641Z,16.38
2023-02-06T09:14:23.085Z,15.57
2023-02-06T09:15:25.445Z,14.03
2023-02-06T09:16:29.510Z,14.25
2023-02-06T09:17:31.994Z,16.90
2023-02-06T09:18:34.996Z,19.93
2023-02-06T09:19:37.432Z,22.47
2023-02-06T09:20:39.870Z,16.17
2023-02-06T09:21:42.304Z,15.17
2023-02-06T09:22:44.812Z,14.72
2023-02-06T09:23:49.684Z,14.32
2023-02-06T09:24:52.113Z,14.20
2023-02-06T09:25:54.495Z,14.28
2023-02-06T09:27:00.122Z,13.52
2023-02-06T09:28:03.075Z,14.12
2023-02-06T09:29:08.027Z,14.85
2023-02-06T09:30:11.204Z,15.00
2023-02-06T09:31:14.067Z,13.78
2023-02-06T09:32:16.651Z,13.78
2023-02-06T09:33:19.104Z,13.45
2023-02-06T09:34:21.483Z,13.88
2023-02-06T09:35:24.279Z,14.37
2023-02-06T09:36:30.368Z,14.52
2023-02-06T09:37:33.275Z,15.03
2023-02-06T09:38:35.917Z,14.88
2023-02-06T09:39:38.365Z,14.95
2023-02-06T09:40:44.270Z,16.48
2023-02-06T09:41:52.521Z,17.85
2023-02-06T09:42:56.249Z,15.75
2023-02-06T09:44:05.796Z,14.47
2023-02-06T09:45:16.663Z,14.32
2023-02-06T09:46:29.081Z,15.65
2023-02-06T09:47:38.618Z,16.78
2023-02-06T09:48:45.779Z,17.17
2023-02-06T09:50:00.588Z,18.72
2023-02-06T09:51:24.557Z,18.75
2023-02-06T09:52:30.268Z,16.50
2023-02-06T09:54:06.059Z,16.82
2023-02-06T09:55:29.975Z,15.53
2023-02-06T09:56:56.156Z,17.83
2023-02-06T09:58:27.167Z,18.05
2023-02-06T09:59:36.510Z,17.27
2023-02-06T10:00:46.946Z,18.03
2023-02-06T10:02:12.364Z,19.15
2023-02-06T10:03:26.140Z,18.35
2023-02-06T10:04:34.191Z,15.78
2023-02-06T10:05:54.933Z,16.70
2023-02-06T10:07:18.494Z,17.07
2023-02-06T10:08:25.731Z,17.73
2023-02-06T10:09:41.416Z,18.37
2023-02-06T10:10:52.604Z,19.28
2023-02-06T10:12:00.189Z,18.62
2023-02-06T10:13:19.900Z,17.77
2023-02-06T10:14:46.736Z,22.30
2023-02-06T10:15:55.246Z,24.57
2023-02-06T10:17:04.516Z,19.47
2023-02-06T10:18:16.523Z,17.18
2023-02-06T10:19:34.763Z,17.32
2023-02-06T10:20:41.939Z,18.17
2023-02-06T10:21:56.234Z,18.50
2023-02-06T10:23:22.791Z,18.38
2023-02-06T10:24:35.267Z,18.90
2023-02-06T10:25:42.537Z,19.72
2023-02-06T10:26:48.152Z,27.35
2023-02-06T10:27:57.155Z,30.90
2023-02-06T10:29:00.307Z,22.55
2023-02-06T10:30:03.535Z,28.25
2023-02-06T10:31:24.381Z,22.65
2023-02-06T10:32:48.176Z,25.55
2023-02-06T10:34:13.965Z,26.00
2023-02-06T10:35:51.074Z,20.00
2023-02-06T10:37:17.968Z,28.45
2023-02-06T10:38:32.637Z,22.25
2023-02-06T10:40:47.111Z,20.40
2023-02-06T10:42:32.597Z,28.07
2023-02-06T10:46:21.531Z,19.53
2023-02-06T10:49:25.847Z,19.48
2023-02-06T10:50:34.591Z,16.65
2023-02-06T10:51:44.158Z,16.30
2023-02-06T10:52:46.890Z,16.67
2023-02-06T10:53:52.649Z,16.63
2023-02-06T10:55:01.716Z,17.22
2023-02-06T10:56:13.977Z,17.23
2023-02-06T10:57:20.159Z,16.78
2023-02-06T10:58:59.135Z,18.57
2023-02-06T11:00:02.125Z,17.03
2023-02-06T11:01:20.092Z,16.22
2023-02-06T11:03:06.778Z,16.00
2023-02-06T11:04:15.221Z,17.40
2023-02-06T11:05:24.109Z,17.42
2023-02-06T11:06:29.082Z,17.37
2023-02-06T11:07:32.916Z,18.40
2023-02-06T11:08:42.271Z,16.73
2023-02-06T11:09:45.223Z,17.33
2023-02-06T11:10:48.016Z,16.53
2023-02-06T11:11:52.045Z,16.50
2023-02-06T11:13:08.428Z,16.52
2023-02-06T11:14:48.856Z,17.05
2023-02-06T11:16:09.758Z,16.08
2023-02-06T11:17:15.470Z,16.38
2023-02-06T11:18:21.422Z,16.62
2023-02-06T11:19:31.814Z,17.48
2023-02-06T11:20:37.548Z,18.05
2023-02-06T11:21:42.529Z,17.78
2023-02-06T11:22:52.678Z,17.80
2023-02-06T11:24:09.932Z,17.75
2023-02-06T11:25:38.819Z,17.28
2023-02-06T11:26:44.287Z,16.70
2023-02-06T11:27:54.471Z,18.05
2023-02-06T11:29:12.125Z,17.87
2023-02-06T11:30:48.283Z,16.52
2023-02-06T11:32:26.747Z,17.60
2023-02-06T11:34:06.490Z,17.60
2023-02-06T11:35:58.542Z,15.75
2023-02-06T11:37:42.296Z,17.53
2023-02-06T11:39:06.120Z,15.65
2023-02-06T11:40:22.884Z,16.05
2023-02-06T11:41:37.441Z,16.75
2023-02-06T11:42:42.491Z,17.15
2023-02-06T11:44:02.294Z,16.72
2023-02-06T11:45:33.223Z,16.58
2023-02-06T11:46:36.897Z,17.25
2023-02-06T11:48:01.377Z,18.18
2023-02-06T11:49:34.269Z,18.97
2023-02-06T11:50:38.183Z,20.23
2023-02-06T11:51:49.624Z,20.35
2023-02-06T11:53:18.530Z,19.73
2023-02-06T11:54:31.320Z,19.55
2023-02-06T11:55:35.520Z,20.17
2023-02-06T11:56:38.131Z,22.18
2023-02-06T11:57:40.580Z,22.82
2023-02-06T11:58:43.192Z,22.08
2023-02-06T11:59:57.939Z,21.82
2023-02-06T12:01:19.048Z,20.90
2023-02-06T12:02:33.519Z,20.58
2023-02-06T12:03:46.327Z,20.92
2023-02-06T12:04:49.602Z,23.95
2023-02-06T12:05:52.295Z,24.75
2023-02-06T12:07:30.113Z,25.85
2023-02-06T12:08:50.661Z,20.77
2023-02-06T12:09:53.298Z,19.67
2023-02-06T12:11:01.570Z,19.98
2023-02-06T12:12:11.271Z,19.97
2023-02-06T12:13:21.577Z,20.67
2023-02-06T12:14:43.803Z,19.73
2023-02-06T12:15:51.112Z,20.15
2023-02-06T12:16:54.396Z,19.52
2023-02-06T12:18:04.704Z,22.50
2023-02-06T12:19:16.906Z,23.63
2023-02-06T12:20:26.521Z,23.02
2023-02-06T12:21:46.291Z,24.98
2023-02-06T12:22:58.263Z,33.32
2023-02-06T12:24:03.605Z,35.28
2023-02-06T12:25:25.632Z,29.68
2023-02-06T12:26:30.655Z,19.38
2023-02-06T12:27:46.039Z,17.57
2023-02-06T12:29:01.963Z,17.18
2023-02-06T12:30:30.484Z,18.42
2023-02-06T12:31:49.769Z,17.32
2023-02-06T12:33:05.654Z,16.68
2023-02-06T12:34:23.560Z,16.42
2023-02-06T12:35:48.000Z,17.07
2023-02-06T12:37:25.695Z,16.57
2023-02-06T12:38:49.257Z,19.32
2023-02-06T12:39:53.652Z,17.85
2023-02-06T12:41:08.793Z,16.93
2023-02-06T12:42:45.314Z,20.05
2023-02-06T12:43:53.730Z,20.78
2023-02-06T12:45:14.697Z,17.80
2023-02-06T12:46:21.214Z,18.72
2023-02-06T12:47:46.230Z,20.52
2023-02-06T12:49:16.808Z,21.20
2023-02-06T12:50:19.263Z,18.78
2023-02-06T12:51:29.520Z,19.27
2023-02-06T12:52:39.704Z,20.60
2023-02-06T12:54:02.454Z,20.73
2023-02-06T12:55:22.281Z,19.02
2023-02-06T12:56:42.815Z,18.07
2023-02-06T12:57:45.843Z,18.72
2023-02-06T12:59:02.943Z,18.60
2023-02-06T13:01:27.608Z,19.03
2023-02-06T13:03:03.977Z,20.68
2023-02-06T13:04:27.231Z,19.73
2023-02-06T13:05:40.574Z,18.92
2023-02-06T13:07:07.815Z,18.37
2023-02-06T13:08:22.239Z,18.03
2023-02-06T13:09:47.998Z,18.65
2023-02-06T13:11:05.324Z,19.97
2023-02-06T13:12:17.955Z,21.08
2023-02-06T13:13:35.165Z,19.48
2023-02-06T13:14:40.023Z,17.73
2023-02-06T13:15:43.079Z,18.40
2023-02-06T13:16:59.252Z,18.40
2023-02-06T13:18:58.122Z,18.45
2023-02-06T13:20:05.067Z,17.43
2023-02-06T13:21:29.196Z,18.03
2023-02-06T13:22:39.368Z,18.23
2023-02-06T13:24:03.170Z,19.45
2023-02-06T13:25:32.675Z,18.35
2023-02-06T13:26:51.713Z,18.17
2023-02-06T13:28:02.729Z,19.32
2023-02-06T13:29:13.368Z,18.33
2023-02-06T13:30:45.424Z,17.45
2023-02-06T13:31:49.494Z,16.92
2023-02-06T13:32:53.365Z,18.53
2023-02-06T13:34:00.163Z,18.82
2023-02-06T13:35:16.018Z,18.23
2023-02-06T13:36:25.829Z,17.17
2023-02-06T13:37:37.964Z,17.75
2023-02-06T13:38:42.450Z,17.40
2023-02-06T13:39:48.795Z,16.90
2023-02-06T13:41:15.779Z,16.05
2023-02-06T13:42:33.570Z,16.50
2023-02-06T13:43:36.597Z,16.45
2023-02-06T13:44:39.682Z,16.60
2023-02-06T13:46:00.746Z,16.42
2023-02-06T13:47:21.861Z,17.07
2023-02-06T13:49:03.862Z,16.38
2023-02-06T13:50:31.478Z,15.53
2023-02-06T13:51:42.950Z,16.55
2023-02-06T13:53:20.538Z,17.22
2023-02-06T13:54:28.995Z,16.88
2023-02-06T13:55:43.829Z,16.83
2023-02-06T13:57:23.990Z,16.47
2023-02-06T13:58:49.414Z,17.13
2023-02-06T14:00:17.734Z,17.55
2023-02-06T14:01:26.035Z,20.98
2023-02-06T14:02:41.907Z,24.35
2023-02-06T14:03:48.406Z,20.37
2023-02-06T14:04:52.383Z,22.62
2023-02-06T14:06:14.570Z,20.02
2023-02-06T14:07:37.230Z,17.25
2023-02-06T14:08:50.322Z,17.43
2023-02-06T14:10:33.406Z,17.23
2023-02-06T14:12:15.585Z,16.20
2023-02-06T14:13:31.711Z,16.53
2023-02-06T14:15:03.520Z,15.48
2023-02-06T14:16:17.787Z,15.55
2023-02-06T14:17:57.084Z,16.12
2023-02-06T14:19:23.950Z,15.97
2023-02-06T14:20:49.133Z,16.38
2023-02-06T14:21:54.511Z,16.47
2023-02-06T14:23:22.293Z,19.55
2023-02-06T14:24:44.065Z,27.33
2023-02-06T14:25:59.631Z,24.72
2023-02-06T14:27:28.798Z,26.68
2023-02-06T14:28:37.668Z,23.37
2023-02-06T14:30:18.974Z,34.25
2023-02-06T14:31:23.240Z,29.82
2023-02-06T14:32:38.735Z,27.52
2023-02-06T14:33:41.154Z,23.93
2023-02-06T14:34:58.445Z,21.55
2023-02-06T14:36:04.416Z,20.78
2023-02-06T14:37:39.653Z,24.43
2023-02-06T14:39:04.985Z,43.32
2023-02-06T14:40:28.632Z,36.52
2023-02-06T14:41:32.346Z,37.18
2023-02-06T14:42:41.366Z,29.80
2023-02-06T14:43:45.459Z,23.72
2023-02-06T14:44:55.078Z,25.17